createdAt,value
2018-06-21T00:00:06.328Z,26.48
2018-06-21T00:01:43.632Z,26.46
2018-06-21T00:03:20.510Z,26.24
2018-06-21T00:04:56.864Z,26.30
2018-06-21T00:06:33.999Z,26.39
2018-06-21T00:08:12.011Z,26.33
2018-06-21T00:09:48.627Z,26.26
2018-06-21T00:11:26.624Z,26.21
2018-06-21T00:13:03.085Z,26.30
2018-06-21T00:14:39.547Z,26.23
2018-06-21T00:16:16.928Z,26.01
2018-06-21T00:17:54.248Z,26.05
2018-06-21T00:19:30.859Z,26.24
2018-06-21T00:21:07.228Z,26.29
2018-06-21T00:22:43.830Z,26.26
2018-06-21T00:24:21.277Z,26.01
2018-06-21T00:25:57.687Z,25.88
2018-06-21T00:27:34.003Z,26.04
2018-06-21T00:29:10.780Z,26.04
2018-06-21T00:30:49.369Z,25.84
2018-06-21T00:32:27.326Z,25.77
2018-06-21T00:34:04.596Z,25.65
2018-06-21T00:35:43.069Z,25.52
2018-06-21T00:37:36.190Z,25.43
2018-06-21T00:39:13.359Z,25.71
2018-06-21T00:40:49.999Z,25.68
2018-06-21T00:42:27.888Z,25.68
2018-06-21T00:44:04.332Z,25.72
2018-06-21T00:45:41.063Z,25.65
2018-06-21T00:47:17.465Z,25.54
2018-06-21T00:48:53.877Z,25.42
2018-06-21T00:50:30.162Z,25.34
2018-06-21T00:52:06.547Z,25.51
2018-06-21T00:53:42.888Z,25.57
2018-06-21T00:56:22.757Z,25.55
2018-06-21T00:57:59.022Z,25.53
2018-06-21T00:59:35.330Z,25.46
2018-06-21T01:01:13.849Z,25.37
2018-06-21T01:02:50.247Z,25.49
2018-06-21T01:04:26.688Z,25.65
2018-06-21T01:06:03.486Z,25.42
2018-06-21T01:07:40.145Z,24.84
2018-06-21T01:09:16.540Z,24.40
2018-06-21T01:10:53.011Z,24.06
2018-06-21T01:12:30.166Z,23.74
2018-06-21T01:14:06.540Z,23.63
2018-06-21T01:17:50.925Z,23.66
2018-06-21T01:19:30.654Z,23.80
2018-06-21T01:21:08.516Z,23.96
2018-06-21T01:22:44.920Z,24.10
2018-06-21T01:24:24.333Z,24.19
2018-06-21T01:26:01.134Z,24.44
2018-06-21T01:27:38.392Z,24.77
2018-06-21T01:29:14.684Z,24.91
2018-06-21T01:30:51.269Z,24.87
2018-06-21T01:32:27.720Z,24.81
2018-06-21T01:34:04.259Z,24.59
2018-06-21T01:35:42.539Z,24.39
2018-06-21T01:37:29.502Z,24.21
2018-06-21T01:39:27.956Z,24.31
2018-06-21T01:41:04.351Z,24.34
2018-06-21T01:42:41.988Z,24.21
2018-06-21T01:44:18.287Z,24.13
2018-06-21T01:45:55.077Z,24.27
2018-06-21T01:47:31.384Z,24.42
2018-06-21T01:49:08.002Z,24.59
2018-06-21T01:50:44.662Z,24.69
2018-06-21T01:52:21.222Z,24.60
2018-06-21T01:53:57.564Z,24.42
2018-06-21T01:55:34.285Z,24.20
2018-06-21T01:57:11.593Z,24.28
2018-06-21T01:58:47.877Z,24.31
2018-06-21T02:00:25.958Z,24.44
2018-06-21T02:02:03.321Z,24.41
2018-06-21T02:03:40.620Z,24.29
2018-06-21T02:05:16.945Z,24.38
2018-06-21T02:06:53.223Z,24.39
2018-06-21T02:08:30.688Z,24.33
2018-06-21T02:10:07.496Z,24.18
2018-06-21T02:11:43.812Z,24.00
2018-06-21T02:13:20.213Z,23.81
2018-06-21T02:14:58.379Z,23.88
2018-06-21T02:16:34.944Z,23.87
2018-06-21T02:18:11.210Z,23.60
2018-06-21T02:19:47.481Z,23.53
2018-06-21T02:21:26.917Z,23.60
2018-06-21T02:23:03.409Z,23.64
2018-06-21T02:24:40.280Z,23.59
2018-06-21T02:26:16.595Z,23.47
2018-06-21T02:27:53.269Z,23.42
2018-06-21T02:29:29.630Z,23.50
2018-06-21T02:31:06.372Z,23.82
2018-06-21T02:32:42.902Z,23.94
2018-06-21T02:34:19.594Z,24.08
2018-06-21T02:35:55.929Z,24.22
2018-06-21T02:37:32.240Z,24.14
2018-06-21T02:39:10.405Z,23.94
2018-06-21T02:40:48.046Z,23.70
2018-06-21T02:42:24.561Z,23.47
2018-06-21T02:44:00.830Z,23.54
2018-06-21T02:45:37.816Z,23.26
2018-06-21T02:47:14.540Z,23.37
2018-06-21T02:48:52.490Z,23.60
2018-06-21T02:50:31.501Z,23.79
2018-06-21T02:52:09.240Z,23.66
2018-06-21T02:53:46.086Z,23.54
2018-06-21T02:55:22.983Z,23.73
2018-06-21T02:56:59.871Z,23.72
2018-06-21T02:58:37.324Z,23.54
2018-06-21T03:00:15.103Z,23.49
2018-06-21T03:01:51.865Z,23.51
2018-06-21T03:03:28.402Z,23.67
2018-06-21T03:05:04.769Z,23.65
2018-06-21T03:06:42.380Z,23.60
2018-06-21T03:08:18.697Z,23.53
2018-06-21T03:10:01.498Z,23.34
2018-06-21T03:11:38.883Z,23.25
2018-06-21T03:13:16.303Z,23.33
2018-06-21T03:14:55.512Z,23.36
2018-06-21T03:16:32.841Z,23.45
2018-06-21T03:18:09.236Z,23.46
2018-06-21T03:19:47.193Z,23.44
2018-06-21T03:21:24.837Z,23.13
2018-06-21T03:23:00.999Z,22.88
2018-06-21T03:24:39.600Z,22.67
2018-06-21T03:26:17.858Z,22.53
2018-06-21T03:27:54.136Z,22.61
2018-06-21T03:29:30.432Z,22.86
2018-06-21T03:31:07.038Z,22.78
2018-06-21T03:32:44.400Z,22.97
2018-06-21T03:34:20.745Z,22.96
2018-06-21T03:35:57.662Z,22.97
2018-06-21T03:37:34.007Z,23.13
2018-06-21T03:39:10.652Z,23.27
2018-06-21T03:40:47.738Z,23.46
2018-06-21T03:42:24.290Z,23.66
2018-06-21T03:44:00.544Z,23.70
2018-06-21T03:45:37.171Z,23.54
2018-06-21T03:47:13.479Z,23.20
2018-06-21T03:48:49.700Z,23.31
2018-06-21T03:50:26.051Z,23.48
2018-06-21T03:52:02.758Z,23.71
2018-06-21T03:53:39.021Z,23.88
2018-06-21T03:55:15.316Z,24.10
2018-06-21T03:56:51.541Z,23.96
2018-06-21T03:58:28.280Z,24.29
2018-06-21T04:00:04.761Z,24.45
2018-06-21T04:01:41.281Z,24.50
2018-06-21T04:03:17.555Z,24.48
2018-06-21T04:04:54.806Z,24.55
2018-06-21T04:06:31.112Z,24.57
2018-06-21T04:08:10.592Z,24.58
2018-06-21T04:09:47.564Z,24.64
2018-06-21T04:11:24.316Z,24.64
2018-06-21T04:13:00.547Z,24.45
2018-06-21T04:14:36.921Z,24.19
2018-06-21T04:16:13.735Z,24.35
2018-06-21T04:17:51.316Z,24.25
2018-06-21T04:19:29.409Z,24.10
2018-06-21T04:21:06.756Z,23.82
2018-06-21T04:22:43.008Z,23.58
2018-06-21T04:24:19.741Z,23.53
2018-06-21T04:25:56.057Z,23.10
2018-06-21T04:27:34.501Z,23.01
2018-06-21T04:29:11.020Z,22.90
2018-06-21T04:30:50.755Z,22.84
2018-06-21T04:32:27.139Z,22.81
2018-06-21T04:34:03.478Z,22.74
2018-06-21T04:35:39.755Z,22.58
2018-06-21T04:37:16.621Z,22.38
2018-06-21T04:38:53.112Z,22.07
2018-06-21T04:40:29.348Z,21.94
2018-06-21T04:42:05.711Z,22.30
2018-06-21T04:43:42.544Z,22.29
2018-06-21T04:45:19.501Z,22.15
2018-06-21T04:46:56.721Z,22.40
2018-06-21T04:48:34.487Z,22.52
2018-06-21T04:50:14.807Z,22.46
2018-06-21T04:51:52.222Z,22.31
2018-06-21T04:53:31.696Z,22.45
2018-06-21T04:55:07.991Z,22.25
2018-06-21T04:56:45.691Z,22.53
2018-06-21T04:58:22.315Z,22.49
2018-06-21T04:59:58.603Z,22.40
2018-06-21T05:01:36.240Z,22.30
2018-06-21T05:04:49.998Z,21.88
2018-06-21T05:06:27.249Z,21.82
2018-06-21T05:08:05.816Z,21.92
2018-06-21T05:09:43.215Z,21.98
2018-06-21T05:11:19.970Z,22.04
2018-06-21T05:12:56.780Z,21.95
2018-06-21T05:14:34.464Z,21.87
2018-06-21T05:16:11.060Z,21.78
2018-06-21T05:17:48.168Z,21.88
2018-06-21T05:19:25.493Z,21.88
2018-06-21T05:21:02.334Z,21.88
2018-06-21T05:22:39.055Z,21.90
2018-06-21T05:24:15.463Z,21.95
2018-06-21T05:25:51.816Z,21.94
2018-06-21T05:27:28.003Z,21.94
2018-06-21T05:29:04.869Z,21.94
2018-06-21T05:30:41.268Z,22.00
2018-06-21T05:32:17.480Z,21.86
2018-06-21T05:33:54.686Z,21.84
2018-06-21T05:35:31.281Z,21.32
2018-06-21T05:37:08.249Z,21.59
2018-06-21T05:38:44.630Z,21.70
2018-06-21T05:40:33.155Z,21.84
2018-06-21T05:42:11.014Z,21.58
2018-06-21T05:43:47.468Z,21.59
2018-06-21T05:45:26.247Z,21.39
2018-06-21T05:47:02.533Z,21.47
2018-06-21T05:48:39.146Z,21.47
2018-06-21T05:50:15.524Z,21.43
2018-06-21T05:51:53.351Z,21.25
2018-06-21T05:53:29.595Z,21.45
2018-06-21T05:55:06.240Z,21.53
2018-06-21T05:56:44.559Z,21.19
2018-06-21T05:58:20.825Z,20.86
2018-06-21T05:59:57.749Z,21.14
2018-06-21T06:01:37.661Z,21.33
2018-06-21T06:03:16.031Z,21.29
2018-06-21T06:04:53.215Z,21.26
2018-06-21T06:06:31.487Z,20.91
2018-06-21T06:08:11.291Z,21.02
2018-06-21T06:09:50.655Z,21.16
2018-06-21T06:11:27.506Z,21.17
2018-06-21T06:13:04.007Z,21.12
2018-06-21T06:14:41.688Z,21.24
2018-06-21T06:16:18.251Z,21.27
2018-06-21T06:17:54.495Z,21.45
2018-06-21T06:19:32.596Z,21.63
2018-06-21T06:21:10.240Z,21.69
2018-06-21T06:22:47.283Z,21.26
2018-06-21T06:24:23.915Z,21.26
2018-06-21T06:26:00.323Z,21.07
2018-06-21T06:27:38.996Z,20.85
2018-06-21T06:29:16.469Z,21.01
2018-06-21T06:30:53.022Z,21.25
2018-06-21T06:32:29.269Z,21.47
2018-06-21T06:34:06.064Z,21.49
2018-06-21T06:35:43.480Z,21.47
2018-06-21T06:37:19.858Z,21.54
2018-06-21T06:39:01.542Z,21.52
2018-06-21T06:40:38.263Z,21.38
2018-06-21T06:42:16.472Z,21.42
2018-06-21T06:43:52.795Z,21.55
2018-06-21T06:45:29.426Z,21.70
2018-06-21T06:47:09.400Z,21.58
2018-06-21T06:48:46.203Z,21.50
2018-06-21T06:50:22.637Z,21.34
2018-06-21T06:51:58.920Z,21.27
2018-06-21T06:53:35.564Z,21.23
2018-06-21T06:55:11.928Z,21.25
2018-06-21T06:56:48.675Z,21.14
2018-06-21T06:58:27.183Z,21.18
2018-06-21T07:00:08.239Z,21.20
2018-06-21T07:01:45.362Z,21.32
2018-06-21T07:03:21.849Z,21.36
2018-06-21T07:05:00.390Z,21.30
2018-06-21T07:06:38.964Z,21.35
2018-06-21T07:08:17.660Z,21.41
2018-06-21T07:09:54.556Z,21.39
2018-06-21T07:11:30.840Z,21.32
2018-06-21T07:13:07.071Z,21.32
2018-06-21T07:14:45.733Z,21.29
2018-06-21T07:16:22.388Z,21.38
2018-06-21T07:17:59.292Z,21.52
2018-06-21T07:21:28.540Z,21.45
2018-06-21T07:23:05.498Z,21.61
2018-06-21T07:24:43.631Z,21.67
2018-06-21T07:26:20.651Z,21.69
2018-06-21T07:27:57.515Z,21.83
2018-06-21T07:29:35.491Z,21.96
2018-06-21T07:31:17.681Z,21.93
2018-06-21T07:32:54.535Z,21.90
2018-06-21T07:34:33.191Z,21.84
2018-06-21T07:36:09.471Z,21.86
2018-06-21T07:37:46.887Z,21.93
2018-06-21T07:39:23.965Z,21.97
2018-06-21T07:41:00.822Z,22.27
2018-06-21T07:42:41.432Z,22.46
2018-06-21T07:44:18.780Z,22.40
2018-06-21T07:45:57.073Z,22.24
2018-06-21T07:47:33.363Z,22.07
2018-06-21T07:49:12.575Z,21.93
2018-06-21T07:50:49.303Z,21.82
2018-06-21T07:52:25.785Z,21.48
2018-06-21T07:54:03.660Z,21.17
2018-06-21T07:55:39.965Z,20.88
2018-06-21T07:57:16.653Z,20.57
2018-06-21T07:58:58.639Z,20.29
2018-06-21T08:00:37.748Z,20.09
2018-06-21T08:02:14.021Z,19.94
2018-06-21T08:03:52.064Z,19.93
2018-06-21T08:05:28.288Z,20.00
2018-06-21T08:07:05.527Z,20.07
2018-06-21T08:08:41.819Z,20.20
2018-06-21T08:10:23.409Z,20.25
2018-06-21T08:11:59.716Z,20.27
2018-06-21T08:13:40.575Z,20.26
2018-06-21T08:15:20.269Z,20.30
2018-06-21T08:16:57.448Z,20.40
2018-06-21T08:18:35.926Z,20.52
2018-06-21T08:20:12.320Z,20.62
2018-06-21T08:21:48.648Z,20.52
2018-06-21T08:23:26.394Z,20.52
2018-06-21T08:25:02.688Z,20.56
2018-06-21T08:26:40.587Z,20.49
2018-06-21T08:28:17.132Z,20.49
2018-06-21T08:29:54.486Z,20.49
2018-06-21T08:31:31.054Z,20.59
2018-06-21T08:33:08.107Z,20.59
2018-06-21T08:34:45.851Z,20.62
2018-06-21T08:36:23.056Z,20.79
2018-06-21T08:38:00.026Z,21.02
2018-06-21T08:39:37.135Z,21.19
2018-06-21T08:41:13.427Z,21.30
2018-06-21T08:42:51.606Z,21.32
2018-06-21T08:44:30.508Z,21.38
2018-06-21T08:46:09.464Z,21.29
2018-06-21T08:47:45.721Z,21.15
2018-06-21T08:49:24.229Z,21.04
2018-06-21T08:51:07.000Z,20.87
2018-06-21T08:52:43.245Z,20.79
2018-06-21T08:54:25.477Z,20.76
2018-06-21T08:56:03.049Z,20.72
2018-06-21T08:57:39.443Z,20.85
2018-06-21T08:59:16.740Z,20.90
2018-06-21T09:00:54.530Z,21.11
2018-06-21T09:02:32.847Z,21.42
2018-06-21T09:04:14.179Z,21.78
2018-06-21T09:05:51.434Z,21.89
2018-06-21T09:07:33.527Z,21.94
2018-06-21T09:09:17.579Z,21.96
2018-06-21T09:10:53.867Z,21.59
2018-06-21T09:12:36.964Z,21.31
2018-06-21T09:14:15.233Z,21.13
2018-06-21T09:15:52.847Z,20.99
2018-06-21T09:17:30.852Z,20.97
2018-06-21T09:19:10.297Z,21.13
2018-06-21T09:20:48.671Z,21.46
2018-06-21T09:22:25.521Z,21.62
2018-06-21T09:24:01.777Z,21.69
2018-06-21T09:25:38.970Z,21.70
2018-06-21T09:27:16.528Z,21.76
2018-06-21T09:28:52.834Z,21.97
2018-06-21T09:30:31.958Z,22.14
2018-06-21T09:32:09.481Z,22.01
2018-06-21T09:33:50.772Z,21.85
2018-06-21T09:35:28.324Z,21.55
2018-06-21T09:37:05.908Z,21.34
2018-06-21T09:38:47.904Z,21.14
2018-06-21T09:40:29.454Z,20.89
2018-06-21T09:42:11.651Z,20.72
2018-06-21T09:44:03.821Z,20.64
2018-06-21T09:45:36.308Z,20.49
2018-06-21T09:47:18.287Z,20.25
2018-06-21T09:48:56.211Z,20.24
2018-06-21T09:50:35.313Z,20.18
2018-06-21T09:52:15.247Z,20.38
2018-06-21T09:53:55.499Z,20.53
2018-06-21T09:55:38.562Z,20.52
2018-06-21T09:59:04.303Z,21.04
2018-06-21T10:00:51.795Z,21.33
2018-06-21T10:02:29.845Z,21.50
2018-06-21T10:04:08.363Z,21.51
2018-06-21T10:05:45.066Z,21.39
2018-06-21T10:07:22.060Z,21.41
2018-06-21T10:09:00.235Z,21.05
2018-06-21T10:10:36.576Z,20.63
2018-06-21T10:12:14.714Z,20.26
2018-06-21T10:13:51.608Z,20.14
2018-06-21T10:15:28.235Z,20.09
2018-06-21T10:17:09.453Z,20.18
2018-06-21T10:18:48.831Z,20.33
2018-06-21T10:20:25.941Z,20.61
2018-06-21T10:22:02.235Z,20.83
2018-06-21T10:23:41.187Z,21.02
2018-06-21T10:25:19.257Z,21.16
2018-06-21T10:27:07.831Z,21.27
2018-06-21T10:28:48.532Z,21.28
2018-06-21T10:30:27.419Z,21.54
2018-06-21T10:32:13.740Z,21.83
2018-06-21T10:33:51.812Z,21.79
2018-06-21T10:35:29.704Z,21.79
2018-06-21T10:37:06.732Z,21.47
2018-06-21T10:38:46.569Z,21.18
2018-06-21T10:40:26.250Z,21.00
2018-06-21T10:42:03.832Z,20.87
2018-06-21T10:43:42.176Z,20.79
2018-06-21T10:45:20.316Z,20.69
2018-06-21T10:46:57.033Z,20.53
2018-06-21T10:48:33.962Z,20.54
2018-06-21T10:50:12.555Z,20.81
2018-06-21T10:51:50.211Z,21.03
2018-06-21T10:53:26.479Z,21.20
2018-06-21T10:55:05.363Z,21.38
2018-06-21T10:56:43.229Z,21.49
2018-06-21T10:58:23.826Z,21.63
2018-06-21T11:00:03.592Z,21.76
2018-06-21T11:01:49.823Z,21.92
2018-06-21T11:03:29.236Z,22.10
2018-06-21T11:05:06.566Z,22.24
2018-06-21T11:06:46.027Z,22.25
2018-06-21T11:08:28.327Z,22.19
2018-06-21T11:10:04.872Z,22.15
2018-06-21T11:11:42.906Z,21.79
2018-06-21T11:13:22.192Z,21.65
2018-06-21T11:15:01.049Z,21.66
2018-06-21T11:16:40.216Z,21.49
2018-06-21T11:18:17.820Z,21.61
2018-06-21T11:19:57.730Z,21.49
2018-06-21T11:21:35.278Z,21.29
2018-06-21T11:23:20.835Z,21.36
2018-06-21T11:24:59.207Z,21.35
2018-06-21T11:26:37.143Z,21.38
2018-06-21T11:28:15.026Z,21.37
2018-06-21T11:29:54.464Z,21.50
2018-06-21T11:31:33.190Z,21.69
2018-06-21T11:33:11.285Z,21.51
2018-06-21T11:34:48.509Z,21.33
2018-06-21T11:36:28.281Z,21.27
2018-06-21T11:38:05.552Z,21.11
2018-06-21T11:39:42.509Z,21.09
2018-06-21T11:41:29.309Z,20.98
2018-06-21T11:43:05.804Z,20.83
2018-06-21T11:44:51.589Z,20.98
2018-06-21T11:46:29.718Z,20.87
2018-06-21T11:48:07.551Z,20.72
2018-06-21T11:49:44.580Z,20.65
2018-06-21T11:51:25.608Z,20.66
2018-06-21T11:53:04.516Z,20.90
2018-06-21T11:54:40.794Z,21.07
2018-06-21T11:56:17.533Z,21.30
2018-06-21T11:57:54.532Z,21.59
2018-06-21T11:59:31.891Z,21.75
2018-06-21T12:01:12.440Z,21.77
2018-06-21T12:02:50.594Z,21.49
2018-06-21T12:04:27.605Z,21.32
2018-06-21T12:06:07.989Z,20.81
2018-06-21T12:07:45.146Z,20.72
2018-06-21T12:09:21.489Z,20.90
2018-06-21T12:10:58.816Z,21.16
2018-06-21T12:12:37.407Z,21.18
2018-06-21T12:14:14.666Z,21.15
2018-06-21T12:15:52.468Z,20.99
2018-06-21T12:17:29.321Z,20.88
2018-06-21T12:19:07.111Z,20.68
2018-06-21T12:20:43.498Z,20.71
2018-06-21T12:22:20.370Z,20.92
2018-06-21T12:23:58.564Z,20.99
2018-06-21T12:25:38.405Z,21.06
2018-06-21T12:27:15.262Z,21.26
2018-06-21T12:28:55.208Z,21.28
2018-06-21T12:30:33.201Z,21.30
2018-06-21T12:32:18.456Z,21.27
2018-06-21T12:33:56.489Z,21.27
2018-06-21T12:35:36.978Z,21.32
2018-06-21T12:37:15.231Z,21.39
2018-06-21T12:38:52.389Z,21.36
2018-06-21T12:40:28.841Z,21.18
2018-06-21T12:42:08.063Z,20.88
2018-06-21T12:43:45.600Z,20.63
2018-06-21T12:45:22.173Z,20.53
2018-06-21T12:47:05.300Z,20.48
2018-06-21T12:48:41.508Z,20.38
2018-06-21T12:50:17.810Z,20.36
2018-06-21T12:51:55.371Z,20.47
2018-06-21T12:53:34.679Z,20.67
2018-06-21T12:55:13.536Z,20.85
2018-06-21T12:56:50.869Z,20.96
2018-06-21T12:58:27.534Z,20.92
2018-06-21T13:00:04.893Z,20.87
2018-06-21T13:01:42.341Z,20.85
2018-06-21T13:03:18.579Z,20.75
2018-06-21T13:04:58.129Z,20.85
2018-06-21T13:06:37.064Z,20.76
2018-06-21T13:08:16.638Z,20.77
2018-06-21T13:10:12.490Z,20.96
2018-06-21T13:13:06.991Z,21.07
2018-06-21T13:14:45.778Z,20.76
2018-06-21T13:16:23.396Z,20.59
2018-06-21T13:18:02.439Z,20.51
2018-06-21T13:19:38.722Z,20.60
2018-06-21T13:21:16.575Z,20.65
2018-06-21T13:22:55.281Z,20.62
2018-06-21T13:24:34.630Z,20.61
2018-06-21T13:26:14.441Z,20.52
2018-06-21T13:27:54.494Z,20.57
2018-06-21T13:29:33.937Z,20.75
2018-06-21T13:31:13.498Z,20.94
2018-06-21T13:32:49.976Z,20.85
2018-06-21T13:34:30.419Z,20.66
2018-06-21T13:36:07.642Z,20.43
2018-06-21T13:37:46.492Z,20.18
2018-06-21T13:39:22.816Z,19.90
2018-06-21T13:41:05.050Z,19.81
2018-06-21T13:42:43.365Z,19.82
2018-06-21T13:44:23.532Z,19.92
2018-06-21T13:46:01.039Z,19.92
2018-06-21T13:47:41.344Z,20.14
2018-06-21T13:49:20.934Z,20.46
2018-06-21T13:50:58.256Z,20.61
2018-06-21T13:52:34.611Z,20.49
2018-06-21T13:54:11.519Z,20.49
2018-06-21T13:55:48.311Z,20.44
2018-06-21T13:57:27.873Z,20.33
2018-06-21T13:59:06.499Z,20.39
2018-06-21T14:00:50.538Z,20.48
2018-06-21T14:02:29.584Z,20.42
2018-06-21T14:04:07.630Z,20.21
2018-06-21T14:05:45.569Z,20.07
2018-06-21T14:07:23.255Z,20.09
2018-06-21T14:09:10.296Z,20.03
2018-06-21T14:10:49.506Z,20.15
2018-06-21T14:12:28.652Z,20.28
2018-06-21T14:14:16.424Z,20.34
2018-06-21T14:15:59.023Z,20.28
2018-06-21T14:17:37.274Z,20.19
2018-06-21T14:19:15.125Z,20.07
2018-06-21T14:20:52.205Z,19.97
2018-06-21T14:22:34.501Z,19.86
2018-06-21T14:24:13.641Z,19.72
2018-06-21T14:25:50.331Z,19.69
2018-06-21T14:27:27.451Z,19.66
2018-06-21T14:29:05.338Z,19.66
2018-06-21T14:30:42.758Z,19.50
2018-06-21T14:33:54.699Z,19.72
2018-06-21T14:35:32.518Z,19.80
2018-06-21T14:37:08.726Z,19.82
2018-06-21T14:38:48.493Z,19.89
2018-06-21T14:40:27.540Z,19.91
2018-06-21T14:42:06.394Z,19.86
2018-06-21T14:43:45.587Z,19.83
2018-06-21T14:45:22.328Z,19.84
2018-06-21T14:46:59.542Z,19.93
2018-06-21T14:48:35.757Z,19.98
2018-06-21T14:50:14.232Z,19.92
2018-06-21T14:51:51.705Z,19.86
2018-06-21T14:53:28.616Z,19.73
2018-06-21T14:55:05.495Z,19.68
2018-06-21T14:56:45.621Z,19.67
2018-06-21T14:58:23.669Z,19.70
2018-06-21T15:00:01.885Z,19.74
2018-06-21T15:01:41.824Z,19.72
2018-06-21T15:03:18.897Z,19.82
2018-06-21T15:04:56.266Z,19.94
2018-06-21T15:06:36.564Z,20.04
2018-06-21T15:08:15.834Z,20.05
2018-06-21T15:09:57.532Z,20.02
2018-06-21T15:11:34.992Z,20.12
2018-06-21T15:13:12.683Z,20.22
2018-06-21T15:14:48.967Z,20.15
2018-06-21T15:16:26.085Z,19.81
2018-06-21T15:18:03.879Z,19.62
2018-06-21T15:19:40.742Z,19.52
2018-06-21T15:21:20.287Z,19.52
2018-06-21T15:22:56.587Z,19.52
2018-06-21T15:24:35.659Z,19.42
2018-06-21T15:26:12.575Z,19.47
2018-06-21T15:27:49.911Z,19.55
2018-06-21T15:29:28.824Z,19.35
2018-06-21T15:31:07.855Z,19.41
2018-06-21T15:32:45.553Z,19.51
2018-06-21T15:34:22.424Z,19.42
2018-06-21T15:35:59.530Z,19.48
2018-06-21T15:37:40.500Z,19.32
2018-06-21T15:39:25.017Z,19.31
2018-06-21T15:41:01.424Z,19.26
2018-06-21T15:42:38.627Z,19.32
2018-06-21T15:44:20.641Z,19.37
2018-06-21T15:45:57.192Z,19.54
2018-06-21T15:47:34.319Z,19.73
2018-06-21T15:49:11.403Z,19.85
2018-06-21T15:50:50.602Z,20.03
2018-06-21T15:52:28.318Z,19.85
2018-06-21T15:54:08.433Z,19.56
2018-06-21T15:55:47.650Z,19.26
2018-06-21T15:57:26.223Z,19.10
2018-06-21T15:59:04.338Z,19.10
2018-06-21T16:00:42.651Z,19.22
2018-06-21T16:02:21.281Z,19.30
2018-06-21T16:03:58.238Z,19.21
2018-06-21T16:05:36.833Z,19.18
2018-06-21T16:07:20.649Z,19.02
2018-06-21T16:08:56.894Z,19.01
2018-06-21T16:10:34.383Z,18.98
2018-06-21T16:12:10.672Z,19.07
2018-06-21T16:13:46.897Z,19.02
2018-06-21T16:15:27.632Z,18.99
2018-06-21T16:17:05.486Z,19.13
2018-06-21T16:18:41.654Z,19.34
2018-06-21T16:20:19.789Z,19.51
2018-06-21T16:21:57.649Z,19.62
2018-06-21T16:23:34.566Z,19.75
2018-06-21T16:25:11.525Z,19.65
2018-06-21T16:26:48.424Z,19.73
2018-06-21T16:28:28.267Z,19.59
2018-06-21T16:30:05.194Z,19.47
2018-06-21T16:31:44.458Z,19.42
2018-06-21T16:33:21.343Z,19.32
2018-06-21T16:34:59.889Z,19.37
2018-06-21T16:36:36.303Z,19.58
2018-06-21T16:38:12.541Z,19.71
2018-06-21T16:39:49.543Z,19.70
2018-06-21T16:41:28.669Z,19.70
2018-06-21T16:43:05.456Z,19.62
2018-06-21T16:44:56.540Z,19.48
2018-06-21T16:46:34.996Z,19.58
2018-06-21T16:48:14.219Z,19.77
2018-06-21T16:49:52.163Z,19.76
2018-06-21T16:51:33.838Z,19.71
2018-06-21T16:53:15.251Z,19.61
2018-06-21T16:54:52.114Z,19.58
2018-06-21T16:56:28.501Z,19.51
2018-06-21T16:58:06.513Z,19.32
2018-06-21T16:59:45.470Z,19.25
2018-06-21T17:01:28.821Z,19.18
2018-06-21T17:03:05.536Z,18.98
2018-06-21T17:04:43.399Z,18.93
2018-06-21T17:06:20.200Z,19.02
2018-06-21T17:08:02.334Z,19.12
2018-06-21T17:09:43.763Z,19.27
2018-06-21T17:11:20.027Z,19.41
2018-06-21T17:13:03.275Z,19.40
2018-06-21T17:14:41.085Z,19.41
2018-06-21T17:16:18.420Z,19.47
2018-06-21T17:17:57.213Z,19.44
2018-06-21T17:19:34.886Z,19.27
2018-06-21T17:21:12.398Z,19.19
2018-06-21T17:22:49.270Z,19.29
2018-06-21T17:24:26.462Z,19.34
2018-06-21T17:26:04.339Z,19.51
2018-06-21T17:27:49.984Z,19.72
2018-06-21T17:29:26.417Z,19.64
2018-06-21T17:31:02.420Z,19.59
2018-06-21T17:32:39.577Z,19.66
2018-06-21T17:34:18.851Z,19.80
2018-06-21T17:35:56.521Z,19.75
2018-06-21T17:37:33.853Z,19.74
2018-06-21T17:39:12.491Z,19.42
2018-06-21T17:40:48.760Z,19.23
2018-06-21T17:42:26.192Z,19.12
2018-06-21T17:44:04.738Z,19.17
2018-06-21T17:45:41.021Z,19.26
2018-06-21T17:47:20.777Z,19.28
2018-06-21T17:48:57.682Z,19.29
2018-06-21T17:50:37.422Z,19.14
2018-06-21T17:52:14.749Z,18.94
2018-06-21T17:53:52.992Z,18.79
2018-06-21T17:55:32.946Z,18.74
2018-06-21T17:57:10.587Z,18.84
2018-06-21T17:58:46.924Z,18.96
2018-06-21T18:00:27.898Z,19.07
2018-06-21T18:02:04.173Z,19.16
2018-06-21T18:03:41.552Z,19.07
2018-06-21T18:05:18.841Z,18.97
2018-06-21T18:06:56.437Z,18.92
2018-06-21T18:08:34.598Z,18.99
2018-06-21T18:10:13.652Z,19.02
2018-06-21T18:11:50.918Z,18.78
2018-06-21T18:13:28.710Z,18.56
2018-06-21T18:15:11.321Z,18.52
2018-06-21T18:16:51.307Z,18.51
2018-06-21T18:18:34.841Z,18.53
2018-06-21T18:20:12.176Z,18.56
2018-06-21T18:21:53.531Z,18.62
2018-06-21T18:23:32.639Z,18.55
2018-06-21T18:25:09.040Z,18.53
2018-06-21T18:26:45.409Z,18.59
2018-06-21T18:28:25.508Z,18.64
2018-06-21T18:30:06.053Z,18.71
2018-06-21T18:31:44.511Z,18.72
2018-06-21T18:33:23.810Z,18.65
2018-06-21T18:35:01.108Z,18.62
2018-06-21T18:36:40.262Z,18.62
2018-06-21T18:38:19.685Z,18.60
2018-06-21T18:39:57.137Z,18.60
2018-06-21T18:41:34.722Z,18.55
2018-06-21T18:43:13.716Z,18.39
2018-06-21T18:44:52.661Z,18.40
2018-06-21T18:46:31.458Z,18.42
2018-06-21T18:48:08.799Z,18.44
2018-06-21T18:49:46.749Z,18.22
2018-06-21T18:51:24.280Z,18.06
2018-06-21T18:53:03.473Z,17.75
2018-06-21T18:54:40.053Z,17.55
2018-06-21T18:56:19.909Z,17.35
2018-06-21T18:57:57.495Z,17.30
2018-06-21T18:59:33.810Z,17.23
2018-06-21T19:01:16.653Z,17.12
2018-06-21T19:02:55.052Z,17.21
2018-06-21T19:04:37.239Z,17.24
2018-06-21T19:06:24.607Z,17.18
2018-06-21T19:08:06.177Z,17.00
2018-06-21T19:09:49.384Z,16.85
2018-06-21T19:11:35.051Z,16.91
2018-06-21T19:13:14.672Z,16.98
2018-06-21T19:14:51.037Z,17.07
2018-06-21T19:16:30.261Z,17.16
2018-06-21T19:18:10.469Z,17.12
2018-06-21T19:19:48.519Z,16.99
2018-06-21T19:21:32.280Z,17.05
2018-06-21T19:23:17.815Z,17.05
2018-06-21T19:24:54.829Z,17.26
2018-06-21T19:26:35.334Z,17.39
2018-06-21T19:28:11.664Z,17.43
2018-06-21T19:29:49.201Z,17.46
2018-06-21T19:33:20.491Z,17.25
2018-06-21T19:35:00.220Z,17.12
2018-06-21T19:36:38.970Z,17.01
2018-06-21T19:38:17.944Z,16.94
2018-06-21T19:39:56.618Z,17.07
2018-06-21T19:41:36.329Z,17.22
2018-06-21T19:43:16.560Z,17.11
2018-06-21T19:44:57.346Z,17.06
2018-06-21T19:46:37.636Z,17.09
2018-06-21T19:48:16.821Z,17.27
2018-06-21T19:49:54.162Z,17.38
2018-06-21T19:51:33.523Z,17.50
2018-06-21T19:53:16.551Z,17.61
2018-06-21T19:54:57.625Z,17.71
2018-06-21T19:56:35.646Z,17.61
2018-06-21T19:58:17.608Z,17.40
2018-06-21T19:59:56.281Z,17.34
2018-06-21T20:01:42.527Z,17.36
2018-06-21T20:03:22.570Z,17.44
2018-06-21T20:05:02.437Z,17.49
2018-06-21T20:06:47.483Z,17.46
2018-06-21T20:09:02.117Z,17.47
2018-06-21T20:10:45.196Z,17.28
2018-06-21T20:12:24.652Z,16.97
2018-06-21T20:14:04.516Z,16.85
2018-06-21T20:15:53.668Z,16.84
2018-06-21T20:17:31.206Z,16.84
2018-06-21T20:19:19.948Z,16.88
2018-06-21T20:20:58.939Z,16.92
2018-06-21T20:22:39.228Z,16.96
2018-06-21T20:24:23.602Z,16.76
2018-06-21T20:26:02.553Z,16.65
2018-06-21T20:27:41.289Z,16.55
2018-06-21T20:29:25.644Z,16.54
2018-06-21T20:31:06.451Z,16.65
2018-06-21T20:32:46.714Z,16.73
2018-06-21T20:34:24.268Z,16.67
2018-06-21T20:36:07.772Z,16.65
2018-06-21T20:37:46.743Z,16.78
2018-06-21T20:39:32.608Z,16.90
2018-06-21T20:41:16.480Z,16.93
2018-06-21T20:42:56.360Z,16.94
2018-06-21T20:44:36.524Z,16.87
2018-06-21T20:46:17.135Z,16.77
2018-06-21T20:48:03.476Z,16.81
2018-06-21T20:49:45.695Z,16.78
2018-06-21T20:51:23.823Z,16.72
2018-06-21T20:53:02.458Z,16.57
2018-06-21T20:54:46.787Z,16.55
2018-06-21T20:56:27.308Z,16.56
2018-06-21T20:58:06.162Z,16.58
2018-06-21T20:59:44.488Z,16.62
2018-06-21T21:01:24.182Z,16.56
2018-06-21T21:03:05.511Z,16.41
2018-06-21T21:05:15.532Z,16.33
2018-06-21T21:06:53.250Z,16.31
2018-06-21T21:08:32.918Z,16.33
2018-06-21T21:10:13.285Z,16.42
2018-06-21T21:11:52.224Z,16.48
2018-06-21T21:13:31.719Z,16.51
2018-06-21T21:15:12.243Z,16.43
2018-06-21T21:16:53.386Z,16.37
2018-06-21T21:18:34.410Z,16.28
2018-06-21T21:20:12.873Z,16.30